WXM80 ListenWXM80 Stop

You find our weather info also at:

UK Metoffice

WeatherCloud

Weather Underground

Northeastern Weather Network

AWEKAS

Citizen Weather Observer Program (CWOP)

HAMweather, WeatherForYou, PWS Weather


Weather Underground History page Text

Daily Summary for August 3, 2017 Units:  English    Metric   Both
« Previous Day
Next Day »
Daily Weekly Monthly Yearly Custom
  High: Low: Average:
Temperature: 85.6 °F 67.5 °F 75.6 °F
Dew Point: 75.0 °F 65.9 °F 69.8 °F
Humidity: 98 % 61 % 83 %
Wind Speed: 5.4 mph 0.0 mph 0.8 mph
Wind Gust: 11.5 mph - -
Wind:- - SE
Pressure: 30.09 in 30.00 in -
Precipitation: 0.05 in    
Historical Graphs
 
 
Tabular Data for August 3, 2017
Time Temperature Dew Point Pressure Wind Wind Speed Wind Gust Humidity Rainfall Rate (Hourly)
00:02 68.0 °F 65.9 °F 30.05 in Calm     93 % 0.00 in
00:07 68.0 °F 65.9 °F 30.05 in Calm     93 % 0.00 in
00:12 68.0 °F 65.9 °F 30.05 in Calm     93 % 0.00 in
00:17 68.0 °F 66.2 °F 30.05 in Calm     94 % 0.00 in
00:22 68.0 °F 66.2 °F 30.05 in Calm     94 % 0.00 in
00:27 67.9 °F 66.1 °F 30.05 in Calm     94 % 0.00 in
00:32 67.9 °F 66.1 °F 30.05 in Calm     94 % 0.00 in
00:37 67.9 °F 66.1 °F 30.05 in Calm     94 % 0.00 in
00:42 67.9 °F 66.1 °F 30.05 in Calm     94 % 0.00 in
00:47 67.9 °F 66.1 °F 30.04 in Calm     94 % 0.00 in
00:52 67.9 °F 66.1 °F 30.04 in Calm     94 % 0.01 in
00:57 67.9 °F 66.1 °F 30.04 in Calm     94 % 0.01 in
01:02 67.9 °F 66.1 °F 30.04 in Calm     94 % 0.01 in
01:07 67.9 °F 66.1 °F 30.04 in Calm     94 % 0.01 in
01:12 67.9 °F 66.1 °F 30.04 in Calm     94 % 0.01 in
01:17 67.9 °F 66.1 °F 30.04 in Calm     94 % 0.01 in
01:22 67.9 °F 66.1 °F 30.04 in Calm     94 % 0.01 in
01:27 67.9 °F 66.1 °F 30.04 in Calm     94 % 0.01 in
01:32 67.9 °F 66.1 °F 30.04 in Calm     94 % 0.01 in
01:42 67.9 °F 66.4 °F 30.03 in Calm     95 % 0.01 in
01:47 67.9 °F 66.4 °F 30.03 in Calm     95 % 0.01 in
01:52 67.9 °F 66.4 °F 30.03 in Calm     95 % 0.00 in
01:57 67.9 °F 66.4 °F 30.03 in Calm     95 % 0.00 in
02:00 68.0 °F 66.5 °F 30.03 in Calm     95 % 0.00 in
02:06 68.0 °F 66.5 °F 30.03 in Calm     95 % 0.00 in
02:11 68.0 °F 66.5 °F 30.03 in Calm     95 % 0.00 in
02:16 68.0 °F 66.5 °F 30.03 in Calm     95 % 0.00 in
02:21 68.0 °F 66.5 °F 30.03 in Calm     95 % 0.00 in
02:26 68.0 °F 66.5 °F 30.04 in Calm   1.0 mph 95 % 0.00 in
02:31 68.0 °F 66.5 °F 30.03 in Calm     95 % 0.00 in
02:36 68.0 °F 66.5 °F 30.04 in Calm     95 % 0.00 in
02:41 68.0 °F 66.5 °F 30.03 in Calm     95 % 0.00 in
02:46 68.0 °F 66.5 °F 30.03 in Calm     95 % 0.00 in
02:51 68.0 °F 66.5 °F 30.03 in Calm     95 % 0.00 in
02:56 68.0 °F 66.5 °F 30.03 in Calm     95 % 0.00 in
03:01 68.0 °F 66.5 °F 30.03 in Calm     95 % 0.01 in
03:06 67.9 °F 66.4 °F 30.03 in Calm     95 % 0.01 in
03:11 67.9 °F 66.4 °F 30.03 in Calm     95 % 0.01 in
03:16 67.9 °F 66.4 °F 30.03 in Calm     95 % 0.01 in
03:21 67.9 °F 66.4 °F 30.03 in Calm     95 % 0.01 in
03:26 68.0 °F 66.5 °F 30.03 in Calm     95 % 0.01 in
03:31 68.0 °F 66.5 °F 30.03 in Calm     95 % 0.01 in
03:36 68.1 °F 66.6 °F 30.03 in Calm   1.2 mph 95 % 0.01 in
03:41 68.2 °F 67.0 °F 30.03 in Calm     96 % 0.01 in
03:46 68.3 °F 67.1 °F 30.03 in Calm     96 % 0.01 in
03:51 68.3 °F 67.1 °F 30.03 in Calm     96 % 0.01 in
03:56 68.4 °F 67.2 °F 30.03 in Calm     96 % 0.01 in
04:01 68.3 °F 67.1 °F 30.03 in Calm     96 % 0.00 in
04:06 68.3 °F 67.1 °F 30.03 in Calm     96 % 0.00 in
04:11 68.3 °F 67.1 °F 30.03 in Calm     96 % 0.00 in
04:16 68.3 °F 67.1 °F 30.03 in Calm     96 % 0.00 in
04:21 68.3 °F 67.1 °F 30.03 in Calm     96 % 0.00 in
04:26 68.3 °F 67.1 °F 30.04 in Calm     96 % 0.00 in
04:31 68.2 °F 67.0 °F 30.03 in Calm     96 % 0.00 in
04:36 68.2 °F 67.0 °F 30.03 in Calm     96 % 0.00 in
04:42 68.2 °F 66.7 °F 30.04 in Calm     95 % 0.00 in
04:47 68.1 °F 66.6 °F 30.04 in Calm     95 % 0.00 in
04:52 68.1 °F 66.6 °F 30.04 in Calm     95 % 0.00 in
04:57 68.1 °F 66.6 °F 30.04 in Calm     95 % 0.00 in
05:02 68.0 °F 66.5 °F 30.04 in Calm     95 % 0.00 in
05:07 68.0 °F 66.5 °F 30.04 in Calm     95 % 0.00 in
05:12 68.0 °F 66.5 °F 30.05 in Calm     95 % 0.00 in
05:17 68.0 °F 66.5 °F 30.05 in Calm     95 % 0.00 in
05:22 67.9 °F 66.4 °F 30.05 in Calm     95 % 0.00 in
05:27 67.9 °F 66.4 °F 30.05 in Calm     95 % 0.00 in
05:32 67.8 °F 66.3 °F 30.05 in Calm     95 % 0.00 in
05:37 67.8 °F 66.3 °F 30.05 in Calm     95 % 0.01 in
05:42 67.8 °F 66.3 °F 30.05 in Calm     95 % 0.01 in
05:47 67.7 °F 66.2 °F 30.05 in Calm     95 % 0.01 in
05:52 67.7 °F 66.2 °F 30.05 in Calm     95 % 0.01 in
05:57 67.6 °F 66.1 °F 30.05 in Calm     95 % 0.01 in
06:02 67.6 °F 66.1 °F 30.05 in Calm     95 % 0.01 in
06:07 67.6 °F 66.1 °F 30.05 in Calm     95 % 0.01 in
06:12 67.5 °F 66.0 °F 30.05 in Calm     95 % 0.01 in
06:17 67.5 °F 66.3 °F 30.05 in Calm     96 % 0.01 in
06:22 67.5 °F 66.3 °F 30.05 in Calm     96 % 0.01 in
06:27 67.6 °F 66.4 °F 30.05 in Calm     96 % 0.01 in
06:33 67.6 °F 66.4 °F 30.05 in Calm     96 % 0.01 in
06:38 67.6 °F 66.4 °F 30.05 in Calm     96 % 0.00 in
06:43 67.6 °F 66.4 °F 30.05 in Calm     96 % 0.00 in
06:48 67.6 °F 66.4 °F 30.06 in Calm     96 % 0.00 in
06:53 67.6 °F 66.4 °F 30.06 in Calm     96 % 0.00 in
06:58 67.6 °F 66.4 °F 30.06 in Calm     96 % 0.00 in
07:03 67.7 °F 66.5 °F 30.06 in Calm     96 % 0.00 in
07:08 67.8 °F 66.6 °F 30.06 in Calm     96 % 0.00 in
07:13 67.9 °F 66.7 °F 30.06 in Calm     96 % 0.00 in
07:18 68.1 °F 66.9 °F 30.07 in Calm     96 % 0.00 in
07:23 68.3 °F 67.1 °F 30.07 in Calm     96 % 0.00 in
07:28 68.4 °F 67.5 °F 30.07 in Calm     97 % 0.00 in
07:33 68.6 °F 67.7 °F 30.07 in Calm     97 % 0.00 in
07:38 68.9 °F 68.0 °F 30.07 in Calm     97 % 0.00 in
07:43 69.2 °F 68.3 °F 30.07 in Calm   1.2 mph 97 % 0.00 in
07:48 69.7 °F 68.8 °F 30.07 in Calm     97 % 0.00 in
07:53 70.0 °F 69.1 °F 30.08 in Calm     97 % 0.00 in
07:58 70.2 °F 69.3 °F 30.08 in Calm     97 % 0.00 in
08:03 70.3 °F 69.4 °F 30.08 in Calm   1.0 mph 97 % 0.00 in
08:08 70.5 °F 69.6 °F 30.08 in Calm   2.3 mph 97 % 0.00 in
08:13 70.7 °F 69.8 °F 30.08 in Calm   1.2 mph 97 % 0.00 in
08:18 70.8 °F 69.9 °F 30.08 in Calm     97 % 0.00 in
08:23 71.0 °F 70.1 °F 30.08 in Calm     97 % 0.00 in
08:28 71.2 °F 70.6 °F 30.08 in Calm     98 % 0.00 in
08:34 71.4 °F 70.5 °F 30.08 in WNW 1.6 mph 2.3 mph 97 % 0.00 in
08:39 71.6 °F 70.7 °F 30.08 in WNW 1.3 mph 3.5 mph 97 % 0.00 in
08:44 71.7 °F 70.8 °F 30.08 in WNW 0.2 mph 1.2 mph 97 % 0.00 in
08:49 71.7 °F 70.8 °F 30.08 in Calm     97 % 0.00 in
08:54 71.9 °F 71.0 °F 30.09 in NNE 3.4 mph 4.6 mph 97 % 0.00 in
08:59 72.1 °F 71.2 °F 30.09 in WNW 2.3 mph 3.5 mph 97 % 0.00 in
09:04 72.2 °F 71.3 °F 30.09 in North 2.4 mph 3.5 mph 97 % 0.00 in
09:09 72.2 °F 71.3 °F 30.09 in NNE 2.1 mph 4.0 mph 97 % 0.00 in
09:14 72.2 °F 71.0 °F 30.09 in NNE 1.7 mph 3.5 mph 96 % 0.00 in
09:19 72.3 °F 71.1 °F 30.09 in North 1.0 mph 2.3 mph 96 % 0.00 in
09:24 72.4 °F 71.2 °F 30.09 in North 3.2 mph 4.0 mph 96 % 0.00 in
09:29 72.5 °F 71.3 °F 30.09 in NNW 2.7 mph 4.6 mph 96 % 0.00 in
09:34 72.6 °F 71.4 °F 30.09 in NNE 3.2 mph 4.6 mph 96 % 0.00 in
09:39 72.8 °F 71.3 °F 30.09 in NNE 0.7 mph 2.0 mph 95 % 0.01 in
09:44 72.9 °F 71.4 °F 30.09 in North 0.9 mph 3.5 mph 95 % 0.01 in
09:49 73.1 °F 71.6 °F 30.09 in North 0.6 mph 2.3 mph 95 % 0.01 in
09:54 73.3 °F 71.8 °F 30.09 in North 0.7 mph 2.3 mph 95 % 0.01 in
09:59 73.6 °F 72.1 °F 30.09 in North 1.1 mph 1.1 mph 95 % 0.01 in
10:05 73.9 °F 72.4 °F 30.09 in North 2.1 mph 3.0 mph 95 % 0.01 in
10:10 74.5 °F 72.7 °F 30.09 in NE 2.1 mph 3.5 mph 94 % 0.01 in
10:15 75.2 °F 73.0 °F 30.09 in NE 2.3 mph 7.0 mph 93 % 0.01 in
10:20 76.2 °F 73.4 °F 30.09 in NE 1.7 mph 3.0 mph 91 % 0.01 in
10:25 77.0 °F 73.2 °F 30.09 in East 2.3 mph 3.5 mph 88 % 0.01 in
10:30 77.5 °F 73.0 °F 30.09 in NE 1.5 mph 4.0 mph 86 % 0.01 in
10:35 78.0 °F 72.8 °F 30.09 in NE 2.5 mph 3.5 mph 84 % 0.01 in
10:40 78.7 °F 73.5 °F 30.09 in NE 0.1 mph 3.5 mph 84 % 0.00 in
10:45 79.0 °F 73.4 °F 30.09 in NE 1.3 mph 3.5 mph 83 % 0.00 in
10:50 79.4 °F 73.4 °F 30.09 in North 1.3 mph 2.3 mph 82 % 0.00 in
10:55 80.1 °F 73.7 °F 30.09 in NNE 0.6 mph 3.0 mph 81 % 0.00 in
11:00 80.6 °F 73.9 °F 30.09 in NNE 0.2 mph 2.3 mph 80 % 0.00 in
11:05 81.3 °F 74.2 °F 30.09 in Calm   2.3 mph 79 % 0.00 in
11:10 81.8 °F 74.3 °F 30.09 in NNE 2.5 mph 3.5 mph 78 % 0.00 in
11:15 82.1 °F 73.4 °F 30.08 in NE 2.5 mph 3.0 mph 75 % 0.00 in
11:20 82.3 °F 74.4 °F 30.08 in NNE 2.5 mph 4.6 mph 77 % 0.00 in
11:25 82.7 °F 74.8 °F 30.08 in North 2.4 mph 5.0 mph 77 % 0.00 in
11:31 82.9 °F 74.2 °F 30.08 in North 1.8 mph 5.0 mph 75 % 0.00 in
11:36 82.9 °F 73.8 °F 30.08 in NNE 3.0 mph 7.0 mph 74 % 0.00 in
11:41 83.1 °F 74.4 °F 30.08 in NNE 2.0 mph 5.0 mph 75 % 0.00 in
11:46 83.4 °F 74.2 °F 30.07 in NE 2.0 mph 5.0 mph 74 % 0.00 in
11:51 83.6 °F 74.8 °F 30.07 in NE 2.0 mph 4.0 mph 75 % 0.00 in
11:56 83.7 °F 74.1 °F 30.07 in NE 2.0 mph 5.0 mph 73 % 0.00 in
12:01 83.8 °F 75.0 °F 30.07 in NNE 0.2 mph 2.3 mph 75 % 0.00 in
12:06 84.2 °F 75.0 °F 30.07 in NNW 2.1 mph 3.5 mph 74 % 0.00 in
12:11 84.6 °F 75.0 °F 30.07 in NNE 2.5 mph 4.6 mph 73 % 0.00 in
12:16 84.7 °F 74.7 °F 30.07 in NE 0.9 mph 3.5 mph 72 % 0.00 in
12:21 84.8 °F 73.9 °F 30.07 in North 3.8 mph 4.6 mph 70 % 0.00 in
12:26 84.9 °F 73.6 °F 30.07 in North 2.7 mph 4.6 mph 69 % 0.00 in
12:31 84.9 °F 74.0 °F 30.07 in NNE 0.6 mph 2.3 mph 70 % 0.00 in
12:36 84.9 °F 73.6 °F 30.07 in NE 1.4 mph 4.6 mph 69 % 0.00 in
12:41 84.8 °F 73.5 °F 30.07 in NE 1.4 mph 3.5 mph 69 % 0.00 in
12:46 84.8 °F 73.1 °F 30.07 in ENE 2.1 mph 3.5 mph 68 % 0.00 in
12:51 84.9 °F 74.0 °F 30.07 in NE 0.9 mph 2.3 mph 70 % 0.00 in
12:56 85.0 °F 73.3 °F 30.06 in NE 1.4 mph 2.3 mph 68 % 0.00 in
13:01 85.1 °F 73.3 °F 30.06 in NE 1.8 mph 3.5 mph 68 % 0.00 in
13:06 84.9 °F 73.6 °F 30.07 in NNE 0.5 mph 4.0 mph 69 % 0.00 in
13:11 84.8 °F 72.6 °F 30.06 in ENE 2.7 mph 4.6 mph 67 % 0.00 in
13:16 84.9 °F 73.2 °F 30.06 in North 2.9 mph 5.0 mph 68 % 0.00 in
13:21 85.1 °F 74.2 °F 30.06 in NE 2.8 mph 4.6 mph 70 % 0.00 in
13:22 85.1 °F 72.9 °F 30.06 in NE 1.0 mph 3.5 mph 67 % 0.00 in
13:27 84.9 °F 72.7 °F 30.06 in ENE 2.8 mph 3.5 mph 67 % 0.00 in
13:32 84.7 °F 73.4 °F 30.06 in NE 1.4 mph 3.5 mph 69 % 0.01 in
13:37 84.5 °F 73.2 °F 30.06 in NE 1.4 mph 5.8 mph 69 % 0.01 in
13:42 84.5 °F 73.6 °F 30.06 in NNE 1.8 mph 4.0 mph 70 % 0.01 in
13:47 84.5 °F 72.3 °F 30.06 in NE 2.5 mph 3.5 mph 67 % 0.01 in
13:52 84.4 °F 73.1 °F 30.06 in NE 1.2 mph 3.5 mph 69 % 0.01 in
13:57 84.5 °F 73.6 °F 30.05 in ENE 2.1 mph 3.0 mph 70 % 0.01 in
14:02 84.2 °F 72.5 °F 30.05 in North 1.8 mph 4.0 mph 68 % 0.01 in
14:07 84.1 °F 72.8 °F 30.05 in ENE 0.8 mph 3.0 mph 69 % 0.01 in
14:12 83.9 °F 73.1 °F 30.05 in NE 1.7 mph 5.8 mph 70 % 0.01 in
14:13 83.9 °F 73.1 °F 30.05 in NE 0.5 mph 3.5 mph 70 % 0.01 in
14:18 84.1 °F 73.3 °F 30.05 in NE 0.8 mph 3.5 mph 70 % 0.01 in
14:23 84.2 °F 74.2 °F 30.05 in Calm   1.2 mph 72 % 0.01 in
14:28 84.3 °F 73.4 °F 30.05 in NE 1.5 mph 3.5 mph 70 % 0.00 in
14:33 84.4 °F 73.1 °F 30.04 in NE 3.2 mph 4.6 mph 69 % 0.00 in
14:38 84.3 °F 73.4 °F 30.05 in NE 1.7 mph 5.8 mph 70 % 0.00 in
14:43 84.4 °F 73.1 °F 30.04 in NE 3.2 mph 5.8 mph 69 % 0.00 in
14:48 84.2 °F 72.5 °F 30.04 in ENE 2.3 mph 4.6 mph 68 % 0.00 in
14:53 83.7 °F 72.4 °F 30.04 in East 0.4 mph 4.6 mph 69 % 0.00 in
14:58 83.4 °F 73.0 °F 30.04 in NE 2.1 mph 3.5 mph 71 % 0.00 in
15:03 83.3 °F 73.7 °F 30.04 in NE 1.3 mph 4.6 mph 73 % 0.00 in
15:08 83.6 °F 74.8 °F 30.04 in NE 0.8 mph 2.3 mph 75 % 0.00 in
15:13 83.8 °F 74.2 °F 30.03 in NE 1.0 mph 2.3 mph 73 % 0.00 in
15:18 84.0 °F 73.6 °F 30.03 in NE 2.4 mph 3.5 mph 71 % 0.00 in
15:23 83.6 °F 73.2 °F 30.03 in ENE 0.8 mph 4.6 mph 71 % 0.00 in
15:29 83.5 °F 73.1 °F 30.02 in NE 0.9 mph 3.5 mph 71 % 0.00 in
15:34 83.6 °F 73.6 °F 30.02 in Calm   4.6 mph 72 % 0.00 in
15:39 83.6 °F 74.0 °F 30.02 in ENE 0.2 mph 1.2 mph 73 % 0.00 in
15:44 84.0 °F 72.7 °F 30.02 in SSW 0.1 mph 3.5 mph 69 % 0.00 in
15:49 84.3 °F 72.1 °F 30.02 in SSW 2.4 mph 4.0 mph 67 % 0.00 in
15:54 84.8 °F 72.2 °F 30.02 in SE 0.6 mph 2.3 mph 66 % 0.00 in
15:59 85.2 °F 71.2 °F 30.02 in SE 2.1 mph 3.5 mph 63 % 0.00 in
16:04 85.3 °F 71.7 °F 30.02 in WSW 1.2 mph 2.3 mph 64 % 0.00 in
16:09 85.6 °F 72.5 °F 30.02 in SSE 1.6 mph 3.5 mph 65 % 0.00 in
16:14 85.5 °F 70.5 °F 30.01 in ESE 5.4 mph 11.5 mph 61 % 0.00 in
16:19 85.3 °F 71.3 °F 30.01 in SSE 4.9 mph 8.1 mph 63 % 0.00 in
16:24 84.9 °F 71.8 °F 30.01 in SE 0.2 mph 2.0 mph 65 % 0.00 in
16:29 84.8 °F 70.8 °F 30.01 in South 1.2 mph 3.0 mph 63 % 0.00 in
16:34 84.7 °F 70.2 °F 30.01 in WSW 1.7 mph 3.5 mph 62 % 0.00 in
16:39 84.7 °F 71.6 °F 30.01 in South 0.4 mph 2.3 mph 65 % 0.00 in
16:44 84.6 °F 72.0 °F 30.01 in SE 0.2 mph 4.6 mph 66 % 0.00 in
16:49 84.7 °F 73.0 °F 30.01 in WSW 1.6 mph 3.0 mph 68 % 0.00 in
16:54 84.8 °F 72.6 °F 30.01 in SE 1.4 mph 5.0 mph 67 % 0.00 in
16:59 84.8 °F 73.1 °F 30.01 in SSW 0.7 mph 4.6 mph 68 % 0.00 in
17:04 84.4 °F 72.2 °F 30.01 in SE 0.7 mph 2.3 mph 67 % 0.00 in
17:09 84.2 °F 72.5 °F 30.01 in South 4.6 mph 6.9 mph 68 % 0.00 in
17:14 83.8 °F 72.5 °F 30.01 in SSE 0.4 mph 1.2 mph 69 % 0.00 in
17:19 83.5 °F 72.7 °F 30.01 in SE 2.6 mph 9.2 mph 70 % 0.00 in
17:24 83.3 °F 72.5 °F 30.01 in South 0.6 mph 2.3 mph 70 % 0.00 in
17:29 82.9 °F 72.5 °F 30.01 in South 0.1 mph 1.2 mph 71 % 0.00 in
17:35 82.7 °F 72.3 °F 30.01 in SSE 0.9 mph 5.8 mph 71 % 0.00 in
17:40 82.3 °F 71.5 °F 30.01 in SSW 5.0 mph 8.1 mph 70 % 0.00 in
17:45 82.0 °F 71.2 °F 30.00 in SE 4.2 mph 11.5 mph 70 % 0.00 in
17:50 81.6 °F 70.9 °F 30.01 in SE 0.8 mph 10.4 mph 70 % 0.00 in
17:55 81.3 °F 71.0 °F 30.01 in SE 2.5 mph 9.0 mph 71 % 0.00 in
18:00 81.1 °F 70.4 °F 30.01 in SE 2.0 mph 5.8 mph 70 % 0.00 in
18:05 81.0 °F 70.7 °F 30.01 in SSE 0.8 mph 2.3 mph 71 % 0.00 in
18:10 81.0 °F 70.7 °F 30.01 in SE 1.6 mph 4.6 mph 71 % 0.00 in
18:15 80.9 °F 70.2 °F 30.01 in WNW 0.3 mph 2.3 mph 70 % 0.00 in
18:20 80.8 °F 70.1 °F 30.02 in SE 1.0 mph 3.5 mph 70 % 0.00 in
18:25 80.7 °F 70.4 °F 30.01 in SSE 2.7 mph 7.0 mph 71 % 0.00 in
18:26 80.7 °F 70.0 °F 30.01 in SSE 1.6 mph 6.9 mph 70 % 0.00 in
18:32 80.5 °F 69.8 °F 30.01 in SSW 1.6 mph 3.5 mph 70 % 0.00 in
18:37 80.2 °F 69.5 °F 30.01 in SSE 0.1 mph 1.2 mph 70 % 0.00 in
18:42 80.1 °F 69.8 °F 30.01 in Calm   6.9 mph 71 % 0.00 in
18:47 79.9 °F 69.7 °F 30.02 in SE 2.5 mph 7.0 mph 71 % 0.00 in
18:52 79.5 °F 68.9 °F 30.01 in South 2.5 mph 5.8 mph 70 % 0.00 in
18:57 79.2 °F 68.1 °F 30.02 in SSW 0.1 mph 3.5 mph 69 % 0.00 in
19:02 79.0 °F 68.0 °F 30.02 in SE 1.1 mph 4.0 mph 69 % 0.00 in
19:07 78.8 °F 67.8 °F 30.02 in Calm   2.3 mph 69 % 0.00 in
19:12 78.7 °F 68.5 °F 30.02 in ESE 0.2 mph 1.2 mph 71 % 0.00 in
19:17 78.6 °F 68.4 °F 30.03 in ESE 0.3 mph 1.2 mph 71 % 0.00 in
19:22 78.4 °F 68.2 °F 30.03 in SSW 0.8 mph 2.3 mph 71 % 0.00 in
19:27 78.2 °F 68.4 °F 30.03 in SSE 0.2 mph 2.3 mph 72 % 0.00 in
19:32 78.0 °F 68.6 °F 30.03 in SW 0.5 mph 3.5 mph 73 % 0.00 in
19:37 77.9 °F 68.9 °F 30.03 in Calm     74 % 0.00 in
19:41 77.7 °F 68.7 °F 30.04 in Calm   2.3 mph 74 % 0.00 in
19:46 77.6 °F 69.0 °F 30.04 in Calm   7.0 mph 75 % 0.00 in
19:51 77.5 °F 69.3 °F 30.04 in Calm   2.0 mph 76 % 0.00 in
19:56 77.4 °F 69.2 °F 30.04 in Calm   2.0 mph 76 % 0.00 in
20:00 77.1 °F 69.3 °F 30.04 in SSW 1.2 mph 3.5 mph 77 % 0.00 in
20:06 77.0 °F 69.6 °F 30.05 in Calm   3.5 mph 78 % 0.00 in
20:11 76.8 °F 69.4 °F 30.05 in SE 1.3 mph 6.0 mph 78 % 0.00 in
20:16 76.6 °F 69.2 °F 30.04 in SSE 0.4 mph 3.5 mph 78 % 0.00 in
20:21 76.4 °F 69.0 °F 30.04 in SSE 0.5 mph 1.2 mph 78 % 0.00 in
20:26 76.4 °F 69.0 °F 30.04 in Calm   1.2 mph 78 % 0.00 in
20:31 76.2 °F 68.8 °F 30.04 in Calm   1.0 mph 78 % 0.00 in
20:36 76.0 °F 68.6 °F 30.04 in SE 0.6 mph 3.0 mph 78 % 0.00 in
20:41 75.9 °F 68.5 °F 30.04 in SE 0.2 mph 1.2 mph 78 % 0.00 in
20:46 75.8 °F 68.4 °F 30.04 in SE 0.4 mph 2.3 mph 78 % 0.00 in
20:51 75.6 °F 68.3 °F 30.04 in SE 1.7 mph 3.0 mph 78 % 0.00 in
20:56 75.5 °F 68.2 °F 30.04 in Calm   1.2 mph 78 % 0.00 in
21:01 75.4 °F 68.1 °F 30.05 in WSW 1.6 mph 3.5 mph 78 % 0.00 in
21:06 75.3 °F 68.3 °F 30.05 in Calm     79 % 0.00 in
21:11 75.3 °F 68.3 °F 30.05 in SE 1.5 mph 3.5 mph 79 % 0.00 in
21:16 75.1 °F 68.1 °F 30.05 in Calm     79 % 0.00 in
21:21 75.1 °F 68.1 °F 30.05 in SE 0.7 mph 2.0 mph 79 % 0.00 in
21:26 75.1 °F 68.1 °F 30.05 in SE 1.1 mph 3.0 mph 79 % 0.00 in
21:31 74.9 °F 68.3 °F 30.05 in SE 1.6 mph 3.5 mph 80 % 0.00 in
21:36 74.8 °F 68.2 °F 30.05 in SE 0.9 mph 2.3 mph 80 % 0.00 in
21:42 74.7 °F 68.5 °F 30.05 in Calm   1.2 mph 81 % 0.00 in
21:47 74.6 °F 68.4 °F 30.06 in Calm   3.5 mph 81 % 0.00 in
21:52 74.5 °F 68.6 °F 30.06 in SE 0.8 mph 3.5 mph 82 % 0.00 in
21:57 74.4 °F 68.5 °F 30.05 in SE 1.2 mph 4.0 mph 82 % 0.00 in
22:02 74.4 °F 68.5 °F 30.06 in SE 0.1 mph 1.2 mph 82 % 0.00 in
22:07 74.3 °F 68.4 °F 30.05 in SE 2.1 mph 4.6 mph 82 % 0.00 in
22:12 74.3 °F 68.8 °F 30.05 in SE 1.1 mph 4.0 mph 83 % 0.00 in
22:17 74.3 °F 68.8 °F 30.05 in Calm   3.5 mph 83 % 0.00 in
22:22 74.3 °F 68.8 °F 30.05 in SE 1.7 mph 5.0 mph 83 % 0.00 in
22:27 74.3 °F 69.1 °F 30.05 in SSE 0.1 mph 1.2 mph 84 % 0.00 in
22:32 74.3 °F 69.1 °F 30.05 in SE 1.2 mph 3.5 mph 84 % 0.00 in
22:37 74.4 °F 69.2 °F 30.05 in Calm     84 % 0.00 in
22:42 74.4 °F 69.2 °F 30.05 in SE 0.3 mph 1.2 mph 84 % 0.00 in
22:47 74.4 °F 69.6 °F 30.05 in Calm     85 % 0.00 in
22:52 74.4 °F 69.6 °F 30.05 in SE 0.4 mph 3.0 mph 85 % 0.00 in
22:57 74.4 °F 69.6 °F 30.05 in SSE 0.1 mph 1.2 mph 85 % 0.00 in
23:02 74.4 °F 69.6 °F 30.05 in Calm   1.2 mph 85 % 0.00 in
23:07 74.4 °F 69.9 °F 30.05 in SSE 0.3 mph 1.2 mph 86 % 0.00 in
23:12 74.5 °F 70.0 °F 30.04 in Calm     86 % 0.00 in
23:17 74.5 °F 70.0 °F 30.05 in Calm   1.2 mph 86 % 0.00 in
23:21 74.5 °F 70.4 °F 30.04 in SSE 0.2 mph 1.2 mph 87 % 0.00 in
23:22 74.5 °F 70.4 °F 30.04 in SSE 0.4 mph 1.2 mph 87 % 0.00 in
23:25 74.5 °F 70.4 °F 30.04 in Calm   1.2 mph 87 % 0.00 in
23:26 74.5 °F 70.4 °F 30.04 in Calm   1.2 mph 87 % 0.00 in
23:31 74.6 °F 70.5 °F 30.03 in SE 0.7 mph 3.5 mph 87 % 0.00 in
23:36 74.6 °F 70.5 °F 30.03 in SE 0.1 mph 3.0 mph 87 % 0.00 in
23:41 74.6 °F 70.5 °F 30.03 in SE 0.5 mph 4.0 mph 87 % 0.00 in
23:46 74.6 °F 70.5 °F 30.03 in Calm   1.2 mph 87 % 0.00 in
23:51 74.5 °F 70.7 °F 30.03 in Calm   1.2 mph 88 % 0.00 in
23:56 74.5 °F 70.7 °F 30.03 in SSE 0.3 mph 1.2 mph 88 % 0.00 in
Crab Meadow Weather
Compliments of Weather Underground - 3 mb

Script developed by  Jim McMurry - jmcmurry@mwt.net Adapted for the template by  Wim van der Kuil - Leuven-Template.eu

Weather Terms: Freezing Rain/Freezing Drizzle - Rain or drizzle which falls in liquid form and freezes on impact with cold surfaces to form a glaze on the ground and exposed objects.